Time;durP1;ratioP1;P1;durP2;ratioP2;P2;SDS_P1;SDS_P2;PMS_P1;PMS_P2;Temp;Humidity;BMP_temperature;BMP_pressure;BME280_temperature;BME280_humidity;BME280_pressure;Samples;Min_cycle;Max_cycle;Signal;HPM_P1;HPM_P2
2021/04/13 00:05:06;;;;;;;8.77;3.47;;;3.10;99.90;;;;;;5147030;28;20184;-73
2021/04/13 00:07:41;;;;;;;9.80;3.80;;;3.10;99.90;;;;;;5146920;28;20203;-71
2021/04/13 00:10:17;;;;;;;10.30;3.83;;;3.10;99.90;;;;;;5147323;28;20188;-71
2021/04/13 00:12:48;;;;;;;8.07;3.70;;;3.10;99.90;;;;;;5146968;28;20196;-72
2021/04/13 00:15:34;;;;;;;7.30;3.70;;;3.10;99.90;;;;;;5146919;28;20236;-71
2021/04/13 00:21:53;;;;;;;11.37;3.87;;;3.10;99.90;;;;;;5147053;28;20195;-70
2021/04/13 00:24:25;;;;;;;12.57;3.50;;;3.10;99.90;;;;;;5147375;28;20196;-73
2021/04/13 00:26:59;;;;;;;8.33;3.27;;;3.10;99.90;;;;;;5145922;28;20196;-72
2021/04/13 00:29:32;;;;;;;9.23;3.80;;;3.10;99.90;;;;;;5147186;28;20556;-74
2021/04/13 00:32:07;;;;;;;8.17;3.40;;;3.10;99.90;;;;;;5147231;28;20670;-75
2021/04/13 00:35:09;;;;;;;10.43;3.60;;;3.10;99.90;;;;;;5146409;28;20200;-75
2021/04/13 00:37:40;;;;;;;8.57;3.20;;;3.10;99.90;;;;;;5145609;28;20556;-73
2021/04/13 00:40:25;;;;;;;9.27;3.37;;;3.10;99.90;;;;;;5146474;28;20234;-75
2021/04/13 00:43:01;;;;;;;7.47;2.80;;;3.10;99.90;;;;;;5145490;28;20198;-74
2021/04/13 00:45:37;;;;;;;7.47;4.03;;;3.00;99.90;;;;;;5146750;28;20272;-74
2021/04/13 00:48:11;;;;;;;11.17;3.60;;;3.00;99.90;;;;;;5145433;28;20199;-76
2021/04/13 00:50:49;;;;;;;6.80;2.90;;;3.00;99.90;;;;;;5146958;28;20670;-75
2021/04/13 00:53:25;;;;;;;8.03;3.10;;;3.00;99.90;;;;;;5146753;28;20203;-74
2021/04/13 00:56:02;;;;;;;8.97;3.83;;;3.00;99.90;;;;;;5145935;28;20592;-74
2021/04/13 00:58:39;;;;;;;5.43;2.93;;;3.00;99.90;;;;;;5145592;28;20224;-73
2021/04/13 01:04:59;;;;;;;7.10;3.23;;;3.00;99.90;;;;;;5144292;28;20204;-74
2021/04/13 01:07:44;;;;;;;7.03;2.63;;;2.90;99.90;;;;;;5129496;28;20337;-74
2021/04/13 01:10:31;;;;;;;10.83;3.30;;;2.90;99.90;;;;;;5145521;28;20196;-71
2021/04/13 01:13:10;;;;;;;7.33;3.10;;;2.90;99.90;;;;;;5148323;28;20553;-69
2021/04/13 01:15:45;;;;;;;9.57;3.20;;;2.90;99.90;;;;;;5147893;28;20196;-71
2021/04/13 01:22:12;;;;;;;7.60;2.87;;;2.90;99.90;;;;;;5147854;28;20172;-72
2021/04/13 01:24:51;;;;;;;8.67;3.40;;;2.90;99.90;;;;;;5148065;28;20670;-71
2021/04/13 01:27:23;;;;;;;11.30;3.30;;;2.90;99.90;;;;;;5132667;28;20564;-71
2021/04/13 01:30:00;;;;;;;7.77;2.80;;;2.90;99.90;;;;;;5147629;28;20312;-70
2021/04/13 01:32:31;;;;;;;7.50;2.93;;;2.90;99.90;;;;;;5147574;28;20204;-71
2021/04/13 01:35:11;;;;;;;6.03;3.10;;;2.90;99.90;;;;;;5139608;28;20295;-70
2021/04/13 01:37:59;;;;;;;5.57;2.77;;;2.90;99.90;;;;;;5129927;28;20715;-70
2021/04/13 01:41:28;;;;;;;10.67;2.90;;;2.90;99.90;;;;;;5129429;28;20196;-69
2021/04/13 01:43:36;;;;;;;6.93;3.40;;;2.90;99.90;;;;;;5127207;28;20208;-70
2021/04/13 01:46:09;;;;;;;10.07;3.30;;;2.90;99.90;;;;;;5129644;29;20570;-70
2021/04/13 01:48:41;;;;;;;9.57;2.80;;;2.80;99.90;;;;;;5129275;28;20197;-70
2021/04/13 01:51:13;;;;;;;6.13;2.57;;;2.80;99.90;;;;;;5128056;29;20193;-70
2021/04/13 01:53:47;;;;;;;6.83;3.00;;;2.80;99.90;;;;;;5129459;28;20193;-70
2021/04/13 01:56:27;;;;;;;9.30;2.40;;;2.80;99.90;;;;;;5129432;28;20192;-72
2021/04/13 01:59:07;;;;;;;6.03;2.70;;;2.80;99.90;;;;;;5129236;28;20581;-72
2021/04/13 02:01:43;;;;;;;6.33;2.60;;;2.80;99.90;;;;;;5129350;29;20193;-70
2021/04/13 02:04:31;;;;;;;6.63;2.73;;;2.80;99.90;;;;;;5128155;29;20299;-73
2021/04/13 02:07:31;;;;;;;8.67;2.93;;;2.80;99.90;;;;;;5129212;29;20193;-71
2021/04/13 02:10:20;;;;;;;6.77;2.40;;;2.90;99.90;;;;;;5129209;29;20196;-72
2021/04/13 02:12:56;;;;;;;7.17;3.00;;;2.90;99.90;;;;;;5129325;28;20572;-71
2021/04/13 02:15:59;;;;;;;6.30;2.80;;;2.90;99.90;;;;;;5128907;28;20197;-73
2021/04/13 02:22:28;;;;;;;6.00;3.10;;;2.90;99.90;;;;;;5086685;29;20205;-71
2021/04/13 02:25:02;;;;;;;5.77;2.63;;;2.90;99.90;;;;;;5071511;29;20237;-72
2021/04/13 02:27:39;;;;;;;7.70;2.43;;;2.90;99.90;;;;;;5087183;29;20222;-72
2021/04/13 02:30:33;;;;;;;7.63;2.77;;;2.90;99.90;;;;;;5087036;29;20216;-73
2021/04/13 02:33:24;;;;;;;4.77;2.60;;;2.90;99.90;;;;;;5071146;29;20570;-70
2021/04/13 02:35:59;;;;;;;7.37;2.90;;;2.90;99.90;;;;;;5086873;29;20214;-71
2021/04/13 02:38:31;;;;;;;5.53;2.50;;;2.90;99.90;;;;;;5086659;29;20218;-73
2021/04/13 02:41:15;;;;;;;6.07;2.93;;;2.80;99.90;;;;;;5086677;29;20213;-70
2021/04/13 02:43:50;;;;;;;7.90;2.63;;;2.80;99.90;;;;;;5086741;29;20201;-70
2021/04/13 02:46:28;;;;;;;9.87;2.80;;;2.80;99.90;;;;;;5086695;29;20198;-71
2021/04/13 02:49:16;;;;;;;7.47;3.00;;;2.80;99.90;;;;;;5086267;29;20668;-71
2021/04/13 02:52:09;;;;;;;7.80;2.63;;;2.80;99.90;;;;;;5086408;29;20206;-71
2021/04/13 02:54:47;;;;;;;6.07;2.87;;;2.80;99.90;;;;;;5103708;29;20213;-70
2021/04/13 02:57:37;;;;;;;10.17;3.30;;;2.80;99.90;;;;;;5128185;28;20204;-70
2021/04/13 03:00:20;;;;;;;9.23;2.70;;;2.80;99.90;;;;;;5127717;28;20224;-72
2021/04/13 03:06:46;;;;;;;6.47;2.40;;;2.80;99.90;;;;;;5127649;29;20200;-71
2021/04/13 03:09:21;;;;;;;5.17;2.30;;;2.80;99.90;;;;;;5127950;28;20197;-73
2021/04/13 03:11:59;;;;;;;9.23;3.00;;;2.80;99.90;;;;;;5128527;28;20288;-71
2021/04/13 03:14:38;;;;;;;6.63;3.03;;;2.80;99.90;;;;;;5139995;28;20236;-69
2021/04/13 03:17:14;;;;;;;7.67;2.93;;;2.80;99.90;;;;;;5147635;28;20200;-70
2021/04/13 03:23:33;;;;;;;6.87;2.57;;;2.70;99.90;;;;;;5147382;28;20283;-71
2021/04/13 03:26:09;;;;;;;8.53;2.97;;;2.70;99.90;;;;;;5147247;28;20200;-73
2021/04/13 03:28:56;;;;;;;9.87;2.93;;;2.70;99.90;;;;;;5147209;28;20191;-72
2021/04/13 03:31:32;;;;;;;8.57;2.90;;;2.70;99.90;;;;;;5147210;28;20196;-73
2021/04/13 03:34:05;;;;;;;6.20;2.47;;;2.70;99.90;;;;;;5146509;28;20192;-75
2021/04/13 03:36:37;;;;;;;7.83;2.90;;;2.70;99.90;;;;;;5147034;28;20201;-73
2021/04/13 03:39:11;;;;;;;9.97;2.60;;;2.80;99.90;;;;;;5146547;28;20542;-70
2021/04/13 03:41:47;;;;;;;9.53;2.97;;;2.70;99.90;;;;;;5146952;28;20195;-73
2021/04/13 03:44:19;;;;;;;6.73;2.70;;;2.80;99.90;;;;;;5147238;28;20564;-71
2021/04/13 03:46:52;;;;;;;10.77;3.23;;;2.80;99.90;;;;;;5147113;28;20590;-73
2021/04/13 03:49:33;;;;;;;6.03;2.57;;;2.80;99.90;;;;;;5146665;28;20213;-71
2021/04/13 03:52:18;;;;;;;6.90;2.70;;;2.80;99.90;;;;;;5147159;28;20215;-72
2021/04/13 03:54:50;;;;;;;5.33;2.63;;;2.80;99.90;;;;;;5147106;28;20200;-71
2021/04/13 03:57:35;;;;;;;5.83;2.63;;;2.80;99.90;;;;;;5146594;28;20193;-69
2021/04/13 04:00:12;;;;;;;5.47;2.70;;;2.90;99.90;;;;;;5146874;28;20586;-70
2021/04/13 04:02:44;;;;;;;7.07;2.97;;;2.90;99.90;;;;;;5146772;28;20596;-68
2021/04/13 04:05:22;;;;;;;9.17;2.60;;;2.90;99.90;;;;;;5146742;28;20231;-69
2021/04/13 04:08:14;;;;;;;9.23;3.30;;;2.90;99.90;;;;;;5146441;28;20295;-69
2021/04/13 04:10:49;;;;;;;9.23;2.90;;;2.90;99.90;;;;;;5146867;28;20196;-69
2021/04/13 04:13:50;;;;;;;8.33;2.67;;;2.90;99.90;;;;;;5146227;28;20238;-70
2021/04/13 04:16:27;;;;;;;9.97;3.10;;;3.00;99.90;;;;;;5147170;28;20211;-74
2021/04/13 04:22:50;;;;;;;7.43;2.47;;;3.00;99.90;;;;;;5146249;28;20203;-74
2021/04/13 04:25:40;;;;;;;6.10;2.47;;;3.00;99.90;;;;;;5146540;28;20627;-72
2021/04/13 04:28:25;;;;;;;7.93;2.77;;;3.00;99.90;;;;;;5146213;28;20204;-70
2021/04/13 04:31:35;;;;;;;9.87;2.73;;;3.00;99.90;;;;;;5145247;28;20558;-70
2021/04/13 04:34:13;;;;;;;10.47;3.10;;;3.00;99.90;;;;;;5146468;28;20196;-69
2021/04/13 04:36:45;;;;;;;8.17;3.00;;;3.00;99.90;;;;;;5146483;28;20203;-70
2021/04/13 04:39:38;;;;;;;6.77;3.30;;;3.10;99.90;;;;;;5146353;28;20670;-70
2021/04/13 04:42:27;;;;;;;6.77;3.07;;;3.10;99.90;;;;;;5145979;28;20200;-70
2021/04/13 04:45:11;;;;;;;7.27;3.57;;;3.10;99.90;;;;;;5147613;28;20582;-71
2021/04/13 04:47:46;;;;;;;11.80;3.97;;;3.20;99.90;;;;;;5153028;28;20196;-72
2021/04/13 04:50:19;;;;;;;7.90;3.80;;;3.20;99.90;;;;;;5153631;28;20203;-71
2021/04/13 04:52:53;;;;;;;10.57;3.90;;;3.20;99.90;;;;;;5153220;28;20199;-70
2021/04/13 04:55:25;;;;;;;10.20;3.80;;;3.30;99.90;;;;;;5154415;28;20196;-68
2021/04/13 04:57:57;;;;;;;9.30;3.50;;;3.40;99.90;;;;;;5152635;28;20196;-69
2021/04/13 05:00:28;;;;;;;7.50;3.17;;;3.50;99.90;;;;;;5153266;28;20224;-71
2021/04/13 05:03:00;;;;;;;10.37;3.07;;;3.60;99.90;;;;;;5153218;28;20192;-71
2021/04/13 05:05:32;;;;;;;6.30;3.00;;;3.60;99.90;;;;;;5152834;28;20192;-71
2021/04/13 05:08:03;;;;;;;6.40;2.93;;;3.70;99.90;;;;;;5152627;28;20197;-71
2021/04/13 05:10:35;;;;;;;3.87;2.30;;;3.70;99.90;;;;;;5152752;28;20610;-71
2021/04/13 05:13:07;;;;;;;7.33;2.97;;;3.80;99.90;;;;;;5152682;28;20192;-72
2021/04/13 05:15:38;;;;;;;6.57;2.50;;;3.80;99.90;;;;;;5152433;28;20208;-68
2021/04/13 05:18:10;;;;;;;7.40;2.70;;;3.90;99.90;;;;;;5152405;28;20215;-66
2021/04/13 05:20:41;;;;;;;8.73;2.93;;;4.00;99.90;;;;;;5151357;28;20623;-69
2021/04/13 05:23:14;;;;;;;8.90;3.03;;;4.10;99.90;;;;;;5151298;28;20196;-69
2021/04/13 05:25:45;;;;;;;8.63;3.33;;;4.20;99.90;;;;;;5152658;28;20516;-70
2021/04/13 05:28:18;;;;;;;7.87;3.67;;;4.20;99.90;;;;;;5152537;28;20207;-71
2021/04/13 05:30:50;;;;;;;9.27;3.57;;;4.30;99.90;;;;;;5152199;28;20200;-69
2021/04/13 05:33:24;;;;;;;5.53;3.40;;;4.30;99.90;;;;;;5152552;28;20573;-70
2021/04/13 05:35:57;;;;;;;9.17;3.60;;;4.40;99.90;;;;;;5152081;28;20196;-71
2021/04/13 05:38:32;;;;;;;6.73;3.80;;;4.60;99.90;;;;;;5152473;28;20196;-69
2021/04/13 05:41:05;;;;;;;8.37;3.33;;;4.60;99.90;;;;;;5152342;28;20200;-69
2021/04/13 05:43:38;;;;;;;6.17;3.07;;;4.80;99.90;;;;;;5152403;28;20200;-70
2021/04/13 05:46:15;;;;;;;7.77;3.40;;;4.90;99.90;;;;;;5152355;28;20200;-68
2021/04/13 05:52:42;;;;;;;9.27;3.23;;;5.10;99.90;;;;;;5152043;28;20193;-68
2021/04/13 05:55:14;;;;;;;9.33;3.77;;;5.20;99.90;;;;;;5152455;28;20196;-69
2021/04/13 05:57:53;;;;;;;7.47;3.40;;;5.10;99.90;;;;;;5148948;28;20197;-68
2021/04/13 06:00:25;;;;;;;6.10;3.20;;;5.20;99.90;;;;;;5147692;28;20224;-69
2021/04/13 06:02:59;;;;;;;6.30;3.70;;;5.20;99.90;;;;;;5148907;28;20196;-69
2021/04/13 06:09:26;;;;;;;6.57;3.53;;;5.40;99.90;;;;;;5144585;28;20450;-71
2021/04/13 06:11:59;;;;;;;9.17;3.67;;;5.40;99.90;;;;;;5147748;28;20197;-70
2021/04/13 06:14:30;;;;;;;7.97;3.43;;;5.50;99.90;;;;;;5146684;28;20240;-71
2021/04/13 06:17:02;;;;;;;7.50;3.60;;;5.60;99.90;;;;;;5148036;28;20196;-69
2021/04/13 06:19:33;;;;;;;7.57;3.20;;;5.60;99.90;;;;;;5148303;28;20314;-71
2021/04/13 06:22:05;;;;;;;10.50;3.50;;;5.70;99.90;;;;;;5148965;28;20201;-70
2021/04/13 06:24:36;;;;;;;10.83;3.63;;;5.80;99.90;;;;;;5149530;28;20558;-73
2021/04/13 06:27:09;;;;;;;9.57;3.93;;;5.80;99.90;;;;;;5149216;28;20524;-71
2021/04/13 06:29:40;;;;;;;9.97;3.73;;;5.80;99.90;;;;;;5149154;28;20195;-71
2021/04/13 06:32:12;;;;;;;6.43;2.67;;;6.20;99.90;;;;;;5148773;28;20196;-70
2021/04/13 06:34:43;;;;;;;7.23;2.30;;;7.40;99.90;;;;;;5148495;28;20677;-70
2021/04/13 06:37:15;;;;;;;7.13;2.67;;;8.80;99.90;;;;;;5148740;28;20585;-72
2021/04/13 06:39:46;;;;;;;4.73;2.20;;;9.90;99.90;;;;;;5148388;28;20697;-69
2021/04/13 06:42:36;;;;;;;7.70;2.40;;;10.40;99.90;;;;;;5148844;28;20519;-74
2021/04/13 06:45:33;;;;;;;5.47;2.40;;;11.60;99.90;;;;;;5148561;28;20200;-71
2021/04/13 06:48:21;;;;;;;6.23;1.93;;;12.90;99.90;;;;;;5148145;28;20193;-75
2021/04/13 06:51:05;;;;;;;4.20;2.03;;;13.10;99.90;;;;;;5147735;28;20199;-74
2021/04/13 06:54:04;;;;;;;5.20;2.10;;;12.90;99.90;;;;;;5148264;28;20622;-71
2021/04/13 06:56:43;;;;;;;4.30;2.00;;;12.90;99.90;;;;;;5148719;28;20198;-70
2021/04/13 06:59:33;;;;;;;5.33;2.10;;;13.00;99.50;;;;;;5147833;28;20220;-72
2021/04/13 07:02:17;;;;;;;5.13;2.33;;;13.20;99.90;;;;;;5134974;28;20196;-71
2021/04/13 07:09:14;;;;;;;3.22;1.58;;;15.30;97.60;;;;;;5145594;28;20238;-70
2021/04/13 07:12:06;;;;;;;5.28;1.70;;;16.20;93.20;;;;;;5133950;28;20215;-69
2021/04/13 07:14:38;;;;;;;5.50;2.25;;;15.10;91.60;;;;;;5060848;28;20278;-70
2021/04/13 07:17:21;;;;;;;5.18;1.70;;;14.10;92.80;;;;;;5065629;28;20228;-70
2021/04/13 07:20:03;;;;;;;3.58;1.60;;;13.20;93.10;;;;;;5146865;28;20224;-70
2021/04/13 07:22:50;;;;;;;3.45;1.42;;;12.80;93.80;;;;;;5147920;28;20560;-70
2021/04/13 07:25:29;;;;;;;3.50;1.70;;;13.10;93.80;;;;;;5148547;28;20204;-71
2021/04/13 07:28:06;;;;;;;2.70;1.40;;;13.10;93.60;;;;;;5148496;28;20208;-68
2021/04/13 07:30:50;;;;;;;3.53;1.47;;;12.30;92.20;;;;;;5147908;28;20207;-71
2021/04/13 07:33:26;;;;;;;2.40;1.40;;;12.10;93.70;;;;;;5148373;28;20646;-71
2021/04/13 07:36:22;;;;;;;4.97;1.77;;;12.10;93.70;;;;;;5148305;28;20578;-68
2021/04/13 07:38:55;;;;;;;3.60;2.17;;;11.90;93.80;;;;;;5147986;28;20591;-68
2021/04/13 07:41:45;;;;;;;3.93;2.00;;;11.60;94.00;;;;;;5141799;28;20197;-72
2021/04/13 07:44:31;;;;;;;3.77;2.20;;;11.50;94.80;;;;;;5144526;28;20727;-71
2021/04/13 07:47:24;;;;;;;4.40;2.47;;;11.70;94.80;;;;;;5120816;28;20623;-69
2021/04/13 07:53:57;;;;;;;6.00;2.60;;;10.40;96.40;;;;;;5099266;28;20711;-69
2021/04/13 07:56:42;;;;;;;4.60;2.30;;;9.50;98.10;;;;;;5141631;28;20200;-74
2021/04/13 07:59:32;;;;;;;4.43;2.40;;;9.40;99.20;;;;;;5144859;28;20216;-68
2021/04/13 08:02:04;;;;;;;5.77;2.50;;;9.40;99.30;;;;;;5146407;28;20502;-69
2021/04/13 08:04:43;;;;;;;6.10;2.43;;;9.20;98.70;;;;;;5143105;28;20188;-70
2021/04/13 08:07:21;;;;;;;4.00;2.00;;;8.90;98.70;;;;;;5145371;28;20196;-69
2021/04/13 08:10:13;;;;;;;6.90;2.40;;;9.00;99.30;;;;;;5146195;28;20203;-72
2021/04/13 08:12:56;;;;;;;4.10;2.10;;;9.10;99.90;;;;;;5146044;28;20259;-70
2021/04/13 08:15:41;;;;;;;7.40;2.30;;;9.10;99.90;;;;;;5143822;28;20197;-69
2021/04/13 08:18:29;;;;;;;4.00;1.93;;;9.50;99.90;;;;;;5144842;28;20297;-69
2021/04/13 08:21:21;;;;;;;5.33;1.90;;;9.50;99.20;;;;;;5144443;28;20230;-70
2021/04/13 08:23:53;;;;;;;5.53;2.23;;;9.20;99.00;;;;;;5144432;28;20200;-70
2021/04/13 08:26:31;;;;;;;6.60;2.30;;;9.20;99.70;;;;;;5144750;28;20207;-69
2021/04/13 08:29:24;;;;;;;5.77;2.00;;;9.50;99.90;;;;;;5144491;28;20200;-70
2021/04/13 08:39:38;;;;;;;3.20;1.60;;;9.60;97.30;;;;;;5145413;28;20637;-70
2021/04/13 08:42:33;;;;;;;3.00;1.40;;;9.40;98.60;;;;;;5138314;28;20227;-71
2021/04/13 08:45:19;;;;;;;1.87;1.20;;;9.30;98.50;;;;;;5141138;28;20200;-70
2021/04/13 08:47:59;;;;;;;3.70;1.00;;;9.40;98.50;;;;;;5142595;28;20787;-70
2021/04/13 08:50:40;;;;;;;3.13;1.20;;;9.50;99.00;;;;;;5143252;28;20219;-70
2021/04/13 08:53:42;;;;;;;4.40;1.40;;;9.70;99.00;;;;;;5142557;28;20338;-70
2021/04/13 08:56:24;;;;;;;3.60;2.03;;;9.60;98.80;;;;;;5141157;28;20207;-69
2021/04/13 08:59:02;;;;;;;3.93;1.90;;;9.40;98.90;;;;;;5143232;28;20215;-68
2021/04/13 09:01:42;;;;;;;4.43;1.70;;;9.30;99.90;;;;;;5098306;28;20196;-66
2021/04/13 09:04:31;;;;;;;4.53;1.80;;;9.40;99.90;;;;;;5144109;28;20374;-72
2021/04/13 09:07:26;;;;;;;4.47;1.43;;;9.40;99.90;;;;;;5144872;28;20279;-69
2021/04/13 09:10:13;;;;;;;4.67;1.73;;;9.70;99.90;;;;;;5133625;28;21103;-69
2021/04/13 09:13:01;;;;;;;4.20;1.70;;;9.90;99.80;;;;;;5138807;28;20211;-68
2021/04/13 09:15:34;;;;;;;4.57;1.77;;;9.70;98.70;;;;;;5144408;28;20640;-71
2021/04/13 09:18:20;;;;;;;3.00;1.40;;;9.70;98.90;;;;;;5136269;28;20216;-69
2021/04/13 09:24:43;;;;;;;2.80;1.30;;;9.80;99.80;;;;;;5093672;28;20385;-69
2021/04/13 09:27:24;;;;;;;4.03;1.43;;;10.00;99.90;;;;;;5106982;28;20188;-68
2021/04/13 09:29:59;;;;;;;4.27;1.27;;;10.20;99.40;;;;;;5129442;28;20295;-67
2021/04/13 09:32:37;;;;;;;3.80;1.37;;;10.20;97.50;;;;;;5146579;28;20586;-68
2021/04/13 09:35:30;;;;;;;4.03;1.20;;;10.10;97.70;;;;;;5147264;28;20223;-70
2021/04/13 09:38:27;;;;;;;2.43;1.10;;;10.00;97.40;;;;;;5148766;28;20196;-68
2021/04/13 09:41:30;;;;;;;1.97;0.97;;;10.20;97.60;;;;;;5146717;28;20585;-68
2021/04/13 09:44:08;;;;;;;5.20;1.10;;;10.50;98.30;;;;;;5148852;28;20188;-70
2021/04/13 09:46:42;;;;;;;1.77;1.10;;;10.80;98.30;;;;;;5148415;28;20200;-69
2021/04/13 09:49:32;;;;;;;2.23;1.17;;;11.00;97.70;;;;;;5148139;28;20196;-68
2021/04/13 09:52:44;;;;;;;2.93;0.80;;;11.20;97.00;;;;;;5148366;28;20584;-70
2021/04/13 09:55:40;;;;;;;1.43;0.80;;;10.90;94.90;;;;;;5145452;28;20192;-69
2021/04/13 09:58:38;;;;;;;2.03;1.17;;;10.70;94.40;;;;;;5148207;28;20201;-68
2021/04/13 10:01:42;;;;;;;3.53;0.90;;;10.40;94.00;;;;;;5132561;28;20232;-66
2021/04/13 10:04:53;;;;;;;1.90;0.77;;;10.30;94.60;;;;;;5135067;28;20200;-66
2021/04/13 10:12:02;;;;;;;3.80;1.30;;;10.20;94.40;;;;;;5147389;28;20227;-69
2021/04/13 10:14:39;;;;;;;1.97;0.83;;;9.50;94.60;;;;;;5070718;29;20281;-70
2021/04/13 10:17:31;;;;;;;1.40;0.70;;;9.10;94.70;;;;;;5086491;29;20233;-67
2021/04/13 10:24:54;;;;;;;4.23;1.30;;;9.50;95.90;;;;;;5027762;29;20268;-75
2021/04/13 10:27:26;;;;;;;1.60;0.90;;;9.50;94.30;;;;;;4920211;30;20223;-71
2021/04/13 10:30:33;;;;;;;5.50;0.77;;;9.40;94.50;;;;;;4934593;30;20207;-75
2021/04/13 10:33:26;;;;;;;1.37;0.80;;;9.00;93.10;;;;;;4919414;30;20204;-69
2021/04/13 10:36:18;;;;;;;3.17;0.90;;;8.90;93.70;;;;;;4933902;30;20236;-70
2021/04/13 10:39:11;;;;;;;2.30;0.90;;;9.00;94.30;;;;;;4934034;30;20208;-71
2021/04/13 10:42:19;;;;;;;1.10;0.80;;;9.10;95.20;;;;;;4934214;30;20332;-70
2021/04/13 10:45:09;;;;;;;4.40;1.10;;;9.10;94.20;;;;;;4918628;30;20222;-75
2021/04/13 10:48:04;;;;;;;2.03;0.90;;;8.90;95.20;;;;;;4918514;30;20342;-71
2021/04/13 10:55:08;;;;;;;3.50;0.90;;;9.10;93.40;;;;;;4970844;29;20288;-75
2021/04/13 10:58:09;;;;;;;1.33;0.70;;;9.40;94.50;;;;;;4957527;29;20565;-72
2021/04/13 11:00:45;;;;;;;1.73;0.90;;;9.30;92.60;;;;;;4972317;29;20313;-70
2021/04/13 11:03:46;;;;;;;2.70;1.10;;;9.20;93.00;;;;;;4993215;29;20211;-73
2021/04/13 11:10:07;;;;;;;2.17;0.93;;;9.30;91.50;;;;;;5124357;29;20682;-71
2021/04/13 11:13:17;;;;;;;1.43;0.70;;;9.60;92.90;;;;;;5124315;29;20208;-66
2021/04/13 11:16:09;;;;;;;2.43;0.80;;;9.90;92.30;;;;;;5026773;29;20212;-66
2021/04/13 11:19:09;;;;;;;1.50;0.83;;;10.20;92.30;;;;;;5027066;29;20603;-69
2021/04/13 11:22:23;;;;;;;9.67;1.10;;;9.90;91.20;;;;;;5026903;29;20192;-72
2021/04/13 11:25:13;;;;;;;3.13;0.80;;;9.70;91.80;;;;;;5052058;29;20254;-69
2021/04/13 11:28:21;;;;;;;1.87;1.00;;;9.70;91.70;;;;;;5065048;29;20191;-70
2021/04/13 11:31:28;;;;;;;2.97;1.00;;;9.50;91.40;;;;;;5064713;29;20198;-71
2021/04/13 11:34:15;;;;;;;2.70;0.90;;;9.40;91.80;;;;;;4988325;29;20262;-71
2021/04/13 11:37:25;;;;;;;1.97;0.80;;;9.40;93.00;;;;;;4986581;29;20201;-71
2021/04/13 11:40:28;;;;;;;2.53;1.30;;;9.70;92.20;;;;;;4988716;29;20244;-70
2021/04/13 11:43:01;;;;;;;3.03;1.00;;;9.60;90.80;;;;;;4988379;29;20296;-70
2021/04/13 11:45:40;;;;;;;3.40;0.90;;;9.40;91.00;;;;;;4988621;29;20304;-70
2021/04/13 11:48:24;;;;;;;2.67;1.20;;;9.20;90.00;;;;;;4988665;29;20278;-71
2021/04/13 11:51:14;;;;;;;2.37;1.20;;;9.10;91.70;;;;;;4988279;29;20228;-70
2021/04/13 11:53:50;;;;;;;2.13;1.40;;;9.10;93.40;;;;;;5082575;29;20677;-70
2021/04/13 11:56:24;;;;;;;3.70;1.40;;;9.00;92.80;;;;;;5083572;29;20193;-70
2021/04/13 11:59:16;;;;;;;2.33;1.40;;;8.80;93.00;;;;;;5084397;29;20216;-71
2021/04/13 12:01:57;;;;;;;2.87;1.50;;;9.00;92.70;;;;;;5083049;29;20202;-70
2021/04/13 12:04:47;;;;;;;2.80;1.30;;;9.20;92.40;;;;;;5084036;29;20210;-70
2021/04/13 12:11:46;;;;;;;3.03;1.33;;;9.50;93.40;;;;;;5125889;28;20218;-69
2021/04/13 12:14:39;;;;;;;3.53;1.73;;;9.80;93.00;;;;;;5146006;28;20358;-70
2021/04/13 12:17:36;;;;;;;3.63;2.17;;;9.90;92.70;;;;;;5145249;28;20203;-69
2021/04/13 12:20:30;;;;;;;3.63;1.80;;;9.90;91.90;;;;;;5145905;28;20230;-69
2021/04/13 12:26:58;;;;;;;4.43;2.00;;;9.50;92.90;;;;;;5145502;28;20243;-71
2021/04/13 12:29:35;;;;;;;5.33;1.90;;;9.40;93.90;;;;;;5145028;28;20669;-68
2021/04/13 12:32:12;;;;;;;2.10;1.70;;;9.30;93.80;;;;;;5145732;28;20217;-71
2021/04/13 12:34:49;;;;;;;5.53;2.10;;;9.20;94.20;;;;;;5145971;28;20202;-72
2021/04/13 12:37:40;;;;;;;4.83;2.40;;;9.30;97.90;;;;;;5144995;28;20207;-70
2021/04/13 12:40:21;;;;;;;5.47;2.50;;;9.20;99.90;;;;;;5145633;28;20639;-71
2021/04/13 12:43:24;;;;;;;4.20;2.40;;;9.00;99.90;;;;;;5144118;28;20200;-70
2021/04/13 12:45:56;;;;;;;5.03;2.37;;;9.00;99.90;;;;;;5145283;28;20203;-72
2021/04/13 12:48:43;;;;;;;5.20;2.47;;;9.10;99.90;;;;;;5145526;28;20194;-72
2021/04/13 12:51:37;;;;;;;10.40;2.77;;;9.10;99.90;;;;;;5145448;28;20192;-71
2021/04/13 12:54:29;;;;;;;7.23;2.40;;;9.20;99.90;;;;;;5083313;29;20234;-71
2021/04/13 12:57:08;;;;;;;5.23;2.40;;;9.20;99.90;;;;;;5083063;29;20213;-70
2021/04/13 12:59:51;;;;;;;4.47;2.00;;;9.30;99.90;;;;;;5083626;29;20268;-70
2021/04/13 13:02:34;;;;;;;7.50;2.70;;;9.50;99.90;;;;;;5083730;29;20205;-69
2021/04/13 13:05:28;;;;;;;7.20;2.20;;;9.70;99.90;;;;;;5530588;23;20775;-70
2021/04/13 13:08:22;;;;;;;3.70;1.83;;;9.90;99.90;;;;;;5110809;28;20814;-68
2021/04/13 13:10:56;;;;;;;9.37;2.40;;;10.20;99.90;;;;;;5132287;28;20218;-70
2021/04/13 13:13:29;;;;;;;7.17;1.87;;;10.60;99.90;;;;;;5144628;28;20211;-69
2021/04/13 13:16:13;;;;;;;4.80;1.73;;;10.90;99.90;;;;;;5144156;28;20204;-70
2021/04/13 13:18:49;;;;;;;2.67;1.10;;;11.30;97.20;;;;;;5148716;28;20228;-72
2021/04/13 13:21:28;;;;;;;3.47;1.30;;;11.90;95.90;;;;;;5146818;28;20227;-69
2021/04/13 13:24:14;;;;;;;3.80;1.33;;;12.40;94.30;;;;;;5146554;28;20276;-69
2021/04/13 13:26:46;;;;;;;3.80;1.00;;;12.50;91.90;;;;;;5127941;28;20287;-69
2021/04/13 13:29:17;;;;;;;3.33;1.10;;;12.20;92.50;;;;;;5142108;28;20602;-69
2021/04/13 13:31:49;;;;;;;1.37;1.10;;;12.10;92.40;;;;;;5147862;28;20648;-71
2021/04/13 13:34:22;;;;;;;2.60;1.20;;;11.90;92.80;;;;;;5134522;28;20545;-69
2021/04/13 13:36:55;;;;;;;3.17;1.50;;;11.80;92.70;;;;;;5143283;28;20196;-70
2021/04/13 13:39:29;;;;;;;3.10;1.30;;;11.50;92.80;;;;;;5145305;28;20208;-70
2021/04/13 13:42:07;;;;;;;3.73;1.40;;;11.40;92.10;;;;;;5142909;28;20695;-72
2021/04/13 13:44:42;;;;;;;5.07;1.70;;;11.50;91.90;;;;;;5145205;28;20200;-70
2021/04/13 13:47:31;;;;;;;3.37;1.07;;;11.70;91.80;;;;;;5143513;28;20610;-70
2021/04/13 13:50:08;;;;;;;3.17;1.20;;;11.80;90.60;;;;;;5144636;28;20200;-71
2021/04/13 13:52:46;;;;;;;4.47;1.40;;;11.60;90.90;;;;;;5147345;28;20203;-70
2021/04/13 13:55:31;;;;;;;3.73;1.20;;;11.50;91.00;;;;;;5146835;28;20553;-72
2021/04/13 13:58:11;;;;;;;5.40;1.17;;;11.40;91.00;;;;;;5146360;28;20204;-72
2021/04/13 14:01:06;;;;;;;2.57;1.03;;;11.40;90.70;;;;;;5146647;28;20228;-74
2021/04/13 14:03:43;;;;;;;4.07;1.20;;;10.70;90.50;;;;;;5140912;28;20685;-73
2021/04/13 14:06:20;;;;;;;4.63;0.93;;;10.40;91.20;;;;;;5145073;28;20196;-71
2021/04/13 14:09:13;;;;;;;3.80;1.10;;;10.40;91.40;;;;;;5128638;28;20200;-72
2021/04/13 14:11:45;;;;;;;4.10;1.30;;;10.30;91.80;;;;;;5141914;28;20918;-72
2021/04/13 14:14:23;;;;;;;5.43;1.20;;;10.20;91.50;;;;;;5140134;28;20252;-71
2021/04/13 14:16:55;;;;;;;2.53;1.23;;;10.10;91.90;;;;;;5139290;28;20298;-71
2021/04/13 14:19:35;;;;;;;2.73;1.10;;;9.90;92.30;;;;;;5138448;28;20184;-72
2021/04/13 14:22:08;;;;;;;2.90;1.10;;;9.70;92.20;;;;;;5143530;28;20206;-72
2021/04/13 14:24:43;;;;;;;3.40;1.13;;;9.50;92.40;;;;;;5142526;28;20207;-72
2021/04/13 14:27:14;;;;;;;7.33;1.73;;;9.50;93.00;;;;;;5134334;28;20635;-72
2021/04/13 14:29:55;;;;;;;3.73;1.23;;;9.40;93.50;;;;;;5143250;28;20570;-72
2021/04/13 14:32:32;;;;;;;8.63;1.13;;;9.40;94.00;;;;;;5144432;28;20651;-72
2021/04/13 14:35:07;;;;;;;4.90;1.20;;;9.50;93.30;;;;;;5140545;28;20208;-71
2021/04/13 14:37:40;;;;;;;4.20;1.10;;;9.60;93.50;;;;;;5145478;28;20192;-72
2021/04/13 14:40:20;;;;;;;3.30;1.13;;;9.60;92.80;;;;;;5145563;28;20257;-72
2021/04/13 14:42:57;;;;;;;3.63;0.83;;;9.60;92.70;;;;;;5145415;28;20184;-73
2021/04/13 14:45:31;;;;;;;2.43;1.13;;;9.50;93.20;;;;;;5146726;28;20248;-72
2021/04/13 14:48:05;;;;;;;3.40;1.13;;;9.50;93.60;;;;;;5146705;28;20188;-72
2021/04/13 14:50:40;;;;;;;4.27;1.20;;;9.50;93.20;;;;;;5147761;28;20198;-72
2021/04/13 14:53:14;;;;;;;4.00;1.33;;;9.80;93.00;;;;;;5146308;28;20307;-73
2021/04/13 14:55:46;;;;;;;3.50;1.40;;;10.00;92.90;;;;;;5147024;28;20192;-70
2021/04/13 14:58:21;;;;;;;3.57;1.23;;;10.00;92.80;;;;;;5149894;28;20639;-71
2021/04/13 15:00:52;;;;;;;4.20;1.60;;;9.80;92.20;;;;;;5150502;28;20307;-71
2021/04/13 15:03:24;;;;;;;4.03;1.70;;;9.60;92.70;;;;;;5151589;28;20219;-71
2021/04/13 15:05:55;;;;;;;7.60;1.90;;;9.50;92.40;;;;;;5148698;28;20323;-70
2021/04/13 15:08:28;;;;;;;4.03;1.90;;;9.50;92.90;;;;;;5145919;28;20224;-70
2021/04/13 15:11:01;;;;;;;3.37;1.20;;;9.40;93.50;;;;;;5138539;28;20212;-71
2021/04/13 15:13:33;;;;;;;5.87;1.40;;;9.30;93.50;;;;;;5144934;28;20200;-70
2021/04/13 15:16:04;;;;;;;3.67;1.50;;;9.20;94.10;;;;;;5144922;28;20208;-70
2021/04/13 15:18:36;;;;;;;4.23;1.60;;;9.00;93.70;;;;;;5143152;28;20251;-69
2021/04/13 15:21:08;;;;;;;6.93;1.50;;;8.90;94.20;;;;;;5144499;28;20251;-70
2021/04/13 15:23:43;;;;;;;5.53;1.83;;;8.80;94.00;;;;;;5144620;28;20283;-71
2021/04/13 15:26:15;;;;;;;4.77;1.30;;;8.70;94.60;;;;;;5126250;28;20207;-75
2021/04/13 15:28:47;;;;;;;9.60;1.83;;;8.80;94.80;;;;;;5123484;28;20200;-69
2021/04/13 15:31:18;;;;;;;8.80;2.03;;;8.90;94.50;;;;;;5140798;28;20211;-69